Charlotte Douglas International Airport
KCLT : rendu visible

Aérodrome :











RETROUVEZ-NOUS SUR...

 
LOGIN :

S'inscrire | Disclaimer

   EN    FR    IT 

 









Légende :    VFR   VFR Marginal   IFR   IFR Intensif   IFR Très Intensif
Visi : 
Plafond : 
>= 8 km
>= 3000ft
5 à 8 km
1000 à 3000 ft
1500m à 5 km
500 à 1000 ft
800 à 1500m
200 à 500 ft
< 800m
< 200 ft
Symboles :   Orages  Brouillard  Fortes neiges  Fortes précipitations  Vent > 20 kt






- Altitude de l'aérodrome : 748 ft
- Code IATA : CLT


KCLT - Charlotte Douglas International

DERNIER METAR :
  • 181552Z 14006KT 10SM OVC023 04/M05 A3043 RMK AO2 SLP308 T00441050

METARs EXPIRÉS :
  • 181452Z 17004KT 10SM OVC026 04/M06 A3047 RMK AO2 SLP321 T00441056 56010
  • 181352Z 18006KT 10SM OVC028 04/M06 A3048 RMK AO2 SLP325 T00391056

TAF KCLT
Valide du 18 à 16h jusqu'au 19 à 18h UTC


181605Z 1816/1918 15006KT P6SM OVC023
TEMPO 1817/1820 3SM -RA BR OVC019
FM182000 19007KT 5SM -RA BR OVC007
FM190300 21009G17KT 4SM -RA BR OVC005
PROB30 1903/1906 1SM -RA BR OVC003
FM190600 21009G19KT 3SM BR OVC004 WS020/25040KT
FM191000 24007KT 5SM BR BKN016
FM191300 29005KT P6SM SCT100



MET'MAP, la Météo Aéronautique d'un coup d'oeil ! - Copyright ORBIFLY Décembre 2007 - Disclaimer

ORBIFLY MET'MAP TEAM :

Programmation & Développement : Alexandra Zaïnal
Sur une idée originale de : Baudouin d'Aumeries
Assistance à la programmation : Marc-Olivier Méhu
Soutien technique & logistique : Manuel Goepfert

Contact : metmap@orbifly.com




SOURCES & CREDITS :

   NOAA       Earth
Advisory